Time;durP1;ratioP1;P1;durP2;ratioP2;P2;SDS_P1;SDS_P2;PMS_P1;PMS_P2;Temp;Humidity;BMP_temperature;BMP_pressure;BME280_temperature;BME280_humidity;BME280_pressure;Samples;Min_cycle;Max_cycle;Signal;HPM_P1;HPM_P2
2022/03/04 04:34:14;;;;;;;;;;;;;;;1.87;87.43;99754.06;4958625;28;20387;-79
2022/03/04 04:36:39;;;;;;;;;;;;;;;1.88;87.06;99759.28;4971980;28;19926;-79
2022/03/04 04:39:04;;;;;;;;;;;;;;;1.79;86.74;99760.25;4970981;28;19951;-79
2022/03/04 04:41:30;;;;;;;;;;;;;;;1.57;86.61;99769.97;4973280;28;19929;-78
2022/03/04 04:43:55;;;;;;;;;;;;;;;1.71;86.76;99763.78;4972376;28;19925;-77
2022/03/04 04:46:20;;;;;;;;;;;;;;;1.57;86.22;99766.50;4971824;28;20431;-78
2022/03/04 04:48:45;;;;;;;;;;;;;;;1.67;86.13;99768.16;4971940;28;19926;-78
2022/03/04 04:51:11;;;;;;;;;;;;;;;1.58;85.55;99753.44;4973044;28;19922;-79
2022/03/04 04:53:38;;;;;;;;;;;;;;;1.66;85.53;99758.63;4973062;28;19918;-78
2022/03/04 04:56:04;;;;;;;;;;;;;;;1.55;85.10;99763.91;4971679;28;20055;-77
2022/03/04 04:58:29;;;;;;;;;;;;;;;1.51;84.48;99762.19;4973031;28;20069;-75
2022/03/04 05:00:54;;;;;;;;;;;;;;;1.51;84.15;99754.34;4972801;28;19918;-78
2022/03/04 05:03:23;;;;;;;;;;;;;;;1.41;84.46;99758.75;4971643;28;19925;-76
2022/03/04 05:05:49;;;;;;;;;;;;;;;1.54;86.30;99759.53;4972531;28;19926;-76
2022/03/04 05:08:15;;;;;;;;;;;;;;;1.59;87.12;99760.38;4971354;28;19922;-77
2022/03/04 05:10:40;;;;;;;;;;;;;;;1.49;86.99;99766.53;4971599;28;19968;-81
2022/03/04 05:13:05;;;;;;;;;;;;;;;1.46;87.13;99771.78;4972915;28;20308;-78
2022/03/04 05:15:31;;;;;;;;;;;;;;;1.40;87.12;99769.22;4972938;28;20391;-77
2022/03/04 05:17:56;;;;;;;;;;;;;;;1.43;87.46;99777.03;4971662;28;19949;-77
2022/03/04 05:20:22;;;;;;;;;;;;;;;1.37;87.17;99775.34;4972767;28;19922;-76
2022/03/04 05:22:47;;;;;;;;;;;;;;;1.37;86.91;99777.06;4963442;28;19924;-76
2022/03/04 05:25:13;;;;;;;;;;;;;;;1.35;86.67;99779.69;4972729;28;19922;-76
2022/03/04 05:27:38;;;;;;;;;;;;;;;1.32;86.41;99784.06;4972029;28;19929;-77
2022/03/04 05:30:04;;;;;;;;;;;;;;;1.27;86.24;99782.31;4972648;28;19922;-77
2022/03/04 05:32:29;;;;;;;;;;;;;;;1.30;85.90;99793.66;4971558;28;19918;-79
2022/03/04 05:34:54;;;;;;;;;;;;;;;1.21;85.68;99798.03;4972463;28;19922;-77
2022/03/04 08:46:01;;;;;;;;;;;;;;;0.67;76.99;99932.97;5087871;23;19929;-79
2022/03/04 08:48:27;;;;;;;;;;;;;;;0.71;76.74;99926.88;4992185;28;19921;-78
2022/03/04 08:50:52;;;;;;;;;;;;;;;0.66;76.60;99933.84;4990949;28;19918;-77
2022/03/04 08:53:18;;;;;;;;;;;;;;;0.66;76.74;99929.50;4992106;28;19964;-77
2022/03/04 08:55:44;;;;;;;;;;;;;;;0.63;76.50;99933.84;4992335;28;19964;-80
2022/03/04 08:58:10;;;;;;;;;;;;;;;0.67;76.45;99935.56;4992306;28;20356;-78
2022/03/04 09:00:35;;;;;;;;;;;;;;;0.66;76.43;99939.91;4991214;28;19928;-80
2022/03/04 09:03:00;;;;;;;;;;;;;;;0.62;76.38;99939.91;4991066;28;19922;-80
2022/03/04 09:05:25;;;;;;;;;;;;;;;0.73;76.26;99953.81;4992365;28;19953;-79
2022/03/04 09:07:51;;;;;;;;;;;;;;;0.67;76.04;99948.59;4992401;28;19925;-83
2022/03/04 09:10:16;;;;;;;;;;;;;;;0.67;75.91;99946.88;4992762;28;19976;-79
2022/03/04 09:12:41;;;;;;;;;;;;;;;0.67;76.19;99943.38;4995913;28;20009;-81
2022/03/04 09:15:10;;;;;;;;;;;;;;;0.69;76.03;99941.69;4994707;28;19965;-79
2022/03/04 09:17:35;;;;;;;;;;;;;;;0.64;75.83;99931.25;4996179;28;19918;-82
2022/03/04 09:20:00;;;;;;;;;;;;;;;0.67;75.79;99936.47;4995870;28;20258;-81
2022/03/04 09:22:26;;;;;;;;;;;;;;;0.69;75.58;99933.84;4994575;28;19925;-81
2022/03/04 09:24:51;;;;;;;;;;;;;;;0.70;75.42;99933.84;4995880;28;19925;-80
2022/03/04 09:27:16;;;;;;;;;;;;;;;0.68;75.11;99930.34;4995880;28;19922;-79
2022/03/04 09:29:41;;;;;;;;;;;;;;;0.71;75.28;99934.72;4994572;28;19921;-82
2022/03/04 09:32:07;;;;;;;;;;;;;;;0.67;75.30;99939.06;4994479;28;19921;-79
2022/03/04 09:34:32;;;;;;;;;;;;;;;0.69;75.41;99941.69;4994231;28;19921;-80
2022/03/04 09:36:57;;;;;;;;;;;;;;;0.76;75.53;99940.78;4995642;28;20381;-82
2022/03/04 09:39:22;;;;;;;;;;;;;;;0.76;75.28;99930.34;4995471;28;19918;-79
2022/03/04 09:41:48;;;;;;;;;;;;;;;0.81;75.52;99933.81;4993518;28;19973;-79
2022/03/04 09:44:14;;;;;;;;;;;;;;;0.82;75.31;99929.50;4993898;28;20361;-80
2022/03/04 09:46:42;;;;;;;;;;;;;;;0.77;75.10;99926.88;4994100;28;20396;-79
2022/03/04 09:49:08;;;;;;;;;;;;;;;0.75;74.92;99931.25;4995322;28;19918;-79
2022/03/04 09:51:34;;;;;;;;;;;;;;;0.77;75.41;99934.72;4993759;28;19976;-80
2022/03/04 09:53:59;;;;;;;;;;;;;;;0.73;75.57;99930.34;4993213;28;19964;-79
2022/03/04 09:56:25;;;;;;;;;;;;;;;0.81;75.50;99933.81;4994455;28;19922;-82
2022/03/04 09:58:50;;;;;;;;;;;;;;;0.79;74.98;99925.13;4991712;28;19937;-81
2022/03/04 10:01:15;;;;;;;;;;;;;;;0.75;74.75;99923.41;4993872;28;20033;-82
2022/03/04 10:03:48;;;;;;;;;;;;;;;0.87;74.64;99926.00;4993495;28;19928;-82
2022/03/04 10:06:14;;;;;;;;;;;;;;;0.80;74.40;99929.50;4994738;28;19918;-80
2022/03/04 10:08:41;;;;;;;;;;;;;;;0.83;74.14;99926.88;4993957;28;19928;-80
2022/03/04 10:11:06;;;;;;;;;;;;;;;0.81;73.93;99927.75;4993556;28;19925;-78
2022/03/04 10:13:45;;;;;;;;;;;;;;;0.77;73.93;99926.88;4994576;28;19926;-83
2022/03/04 10:16:21;;;;;;;;;;;;;;;0.73;73.77;99919.91;4974916;28;19922;-82
2022/03/04 10:19:02;;;;;;;;;;;;;;;0.84;73.84;99923.38;4972741;28;19922;-82
2022/03/04 10:21:43;;;;;;;;;;;;;;;0.81;73.56;99918.16;4973504;28;19941;-80
2022/03/04 10:24:08;;;;;;;;;;;;;;;0.84;73.78;99917.31;4975187;28;19918;-82
2022/03/04 10:26:33;;;;;;;;;;;;;;;0.87;73.21;99912.09;4975363;28;19922;-82
2022/03/04 10:28:59;;;;;;;;;;;;;;;0.81;73.19;99910.34;4971982;28;19981;-79
2022/03/04 10:31:24;;;;;;;;;;;;;;;0.83;73.17;99913.84;4975231;28;19929;-81
2022/03/04 10:34:04;;;;;;;;;;;;;;;0.83;73.07;99902.50;4974021;28;20389;-81
2022/03/04 10:36:32;;;;;;;;;;;;;;;0.80;73.26;99908.63;4970866;28;19988;-79
2022/03/04 10:39:10;;;;;;;;;;;;;;;0.76;73.43;99904.25;4975152;28;19925;-79
2022/03/04 10:41:48;;;;;;;;;;;;;;;0.84;73.67;99905.13;4974695;28;19980;-80
2022/03/04 10:44:26;;;;;;;;;;;;;;;0.80;73.62;99908.63;4972379;28;19929;-82
2022/03/04 10:46:58;;;;;;;;;;;;;;;0.85;73.50;99912.09;4974012;28;19922;-81
2022/03/04 10:49:24;;;;;;;;;;;;;;;0.87;73.66;99915.56;4974553;28;20870;-79
2022/03/04 10:51:50;;;;;;;;;;;;;;;0.81;73.54;99912.94;4973627;28;19973;-82
2022/03/04 10:54:16;;;;;;;;;;;;;;;0.85;73.50;99919.06;4972950;28;19925;-81
2022/03/04 10:56:52;;;;;;;;;;;;;;;0.84;73.43;99917.31;4974864;28;19918;-81
2022/03/04 10:59:18;;;;;;;;;;;;;;;0.90;73.37;99910.34;4972951;28;19921;-83
2022/03/04 11:01:48;;;;;;;;;;;;;;;0.84;73.29;99912.09;4972657;28;20381;-80
2022/03/04 11:04:15;;;;;;;;;;;;;;;0.75;73.17;99907.75;4972627;28;19914;-82
2022/03/04 11:06:42;;;;;;;;;;;;;;;0.75;73.35;99902.53;4974598;28;19922;-81
2022/03/04 11:09:07;;;;;;;;;;;;;;;0.85;73.30;99900.78;4973296;28;20409;-79
2022/03/04 11:11:33;;;;;;;;;;;;;;;0.87;73.33;99902.50;4974390;28;19953;-80
2022/03/04 11:13:59;;;;;;;;;;;;;;;0.84;73.24;99897.28;4973168;28;20828;-81
2022/03/04 11:16:24;;;;;;;;;;;;;;;0.90;73.36;99901.66;4973559;28;20205;-81
2022/03/04 11:18:50;;;;;;;;;;;;;;;0.83;73.27;99895.56;4974379;28;19992;-79
2022/03/04 11:21:16;;;;;;;;;;;;;;;0.84;73.51;99892.06;4974203;28;19926;-81
2022/03/04 11:23:45;;;;;;;;;;;;;;;0.84;73.25;99886.84;4974140;28;19918;-81
2022/03/04 11:26:16;;;;;;;;;;;;;;;0.86;73.39;99890.34;4974152;28;19929;-81
2022/03/04 11:28:42;;;;;;;;;;;;;;;0.92;73.34;99886.00;4972846;28;19957;-78
2022/03/04 11:31:09;;;;;;;;;;;;;;;0.99;73.34;99879.88;4972806;28;20016;-82
2022/03/04 11:33:44;;;;;;;;;;;;;;;0.92;73.39;99886.00;4973315;28;19922;-82
2022/03/04 11:36:14;;;;;;;;;;;;;;;0.95;73.16;99883.38;4972483;28;19918;-82
2022/03/04 11:38:48;;;;;;;;;;;;;;;1.03;73.24;99882.47;4972218;28;19953;-80
2022/03/04 11:41:18;;;;;;;;;;;;;;;0.96;72.91;99877.25;4972430;28;19969;-80
2022/03/04 11:43:45;;;;;;;;;;;;;;;0.96;72.87;99879.88;4971344;28;19925;-82
2022/03/04 11:46:17;;;;;;;;;;;;;;;0.99;72.67;99885.09;4972365;28;19980;-80
2022/03/04 11:48:42;;;;;;;;;;;;;;;0.93;72.87;99879.91;4972406;28;19922;-80
2022/03/04 11:51:13;;;;;;;;;;;;;;;1.04;72.69;99880.75;4968254;28;20518;-81
2022/03/04 11:53:39;;;;;;;;;;;;;;;0.99;72.63;99874.66;4972527;28;19922;-82
2022/03/04 11:56:07;;;;;;;;;;;;;;;0.99;72.52;99879.88;4973414;28;19925;-82
2022/03/04 11:58:51;;;;;;;;;;;;;;;0.99;72.04;99879.88;4972221;28;19945;-79
2022/03/04 12:01:16;;;;;;;;;;;;;;;0.97;72.00;99871.19;4973591;28;19925;-83
2022/03/04 12:04:03;;;;;;;;;;;;;;;0.95;72.11;99872.94;4972286;28;20470;-82
2022/03/04 12:06:29;;;;;;;;;;;;;;;1.02;72.06;99869.44;4972798;28;19976;-81
2022/03/04 12:08:57;;;;;;;;;;;;;;;1.06;72.04;99876.38;4973745;28;19957;-79
2022/03/04 12:11:23;;;;;;;;;;;;;;;0.97;71.91;99871.19;4973309;28;19922;-80
2022/03/04 12:13:49;;;;;;;;;;;;;;;1.07;71.63;99871.16;4970131;28;20009;-86
2022/03/04 12:16:14;;;;;;;;;;;;;;;0.99;71.83;99870.31;4972260;28;20001;-84
2022/03/04 12:18:41;;;;;;;;;;;;;;;1.13;71.67;99867.66;4973440;28;19926;-85
2022/03/04 12:21:25;;;;;;;;;;;;;;;1.04;71.65;99863.34;4973174;28;19915;-84
2022/03/04 12:23:59;;;;;;;;;;;;;;;1.08;71.65;99869.41;4973245;28;19926;-82
2022/03/04 12:26:32;;;;;;;;;;;;;;;1.08;71.44;99869.41;4973212;28;19922;-85
2022/03/04 12:29:02;;;;;;;;;;;;;;;1.06;71.26;99865.94;4970731;28;20282;-87
2022/03/04 12:31:30;;;;;;;;;;;;;;;1.07;71.31;99858.13;4971673;28;19918;-86
2022/03/04 12:33:57;;;;;;;;;;;;;;;1.11;71.31;99860.72;4973376;28;19922;-80
2022/03/04 12:36:23;;;;;;;;;;;;;;;1.14;71.02;99858.09;4972957;28;19949;-84
2022/03/04 12:38:50;;;;;;;;;;;;;;;1.16;71.13;99851.97;4973162;28;19950;-81
2022/03/04 12:41:17;;;;;;;;;;;;;;;1.16;71.18;99849.38;4973166;28;19926;-85
2022/03/04 12:43:50;;;;;;;;;;;;;;;1.16;70.94;99851.97;4972146;28;20305;-84
2022/03/04 12:46:16;;;;;;;;;;;;;;;1.18;70.75;99849.38;4974941;28;19980;-80
2022/03/04 12:48:41;;;;;;;;;;;;;;;1.14;70.96;99853.75;4977037;28;19976;-80
2022/03/04 12:51:25;;;;;;;;;;;;;;;1.37;72.87;99845.84;4976925;28;19914;-80
2022/03/04 12:53:51;;;;;;;;;;;;;;;1.69;76.98;99841.31;4976644;28;20415;-84
2022/03/04 12:56:18;;;;;;;;;;;;;;;1.83;80.02;99838.63;4976963;28;19926;-80
2022/03/04 12:58:45;;;;;;;;;;;;;;;1.92;82.28;99833.34;4975573;28;20329;-80
2022/03/04 13:01:15;;;;;;;;;;;;;;;2.07;84.01;99824.50;4975666;28;19929;-82
2022/03/04 13:03:48;;;;;;;;;;;;;;;2.12;85.08;99825.31;4976571;28;19977;-84
2022/03/04 13:06:13;;;;;;;;;;;;;;;2.24;85.87;99821.75;4976024;28;19925;-80
2022/03/04 13:08:50;;;;;;;;;;;;;;;2.24;86.75;99821.75;4976539;28;19918;-81
2022/03/04 13:11:20;;;;;;;;;;;;;;;2.24;87.68;99819.16;4976069;28;19925;-85
2022/03/04 13:13:46;;;;;;;;;;;;;;;2.24;88.38;99820.00;4974635;28;19922;-79
2022/03/04 13:16:12;;;;;;;;;;;;;;;2.22;89.26;99816.53;4976681;28;19964;-86
2022/03/04 13:18:38;;;;;;;;;;;;;;;2.16;90.34;99821.81;4975225;28;20004;-83
2022/03/04 13:21:05;;;;;;;;;;;;;;;2.21;91.64;99814.81;4974473;28;19925;-81
2022/03/04 13:23:30;;;;;;;;;;;;;;;2.24;92.23;99814.78;4975010;28;20432;-81
2022/03/04 13:26:03;;;;;;;;;;;;;;;2.23;92.89;99820.03;4976568;28;19922;-84
2022/03/04 13:28:48;;;;;;;;;;;;;;;2.23;94.33;99818.25;4976229;28;19922;-82
2022/03/04 13:31:20;;;;;;;;;;;;;;;2.35;95.53;99818.16;4975003;28;20336;-82
2022/03/04 13:33:46;;;;;;;;;;;;;;;2.48;97.41;99818.06;4974279;28;19922;-83
2022/03/04 13:36:11;;;;;;;;;;;;;;;2.66;98.92;99812.63;4974918;28;19925;-83
2022/03/04 13:38:36;;;;;;;;;;;;;;;2.78;100.00;99806.41;4974852;28;19953;-82
2022/03/04 13:41:04;;;;;;;;;;;;;;;2.96;100.00;99802.72;4974732;28;20341;-86
2022/03/04 13:43:32;;;;;;;;;;;;;;;3.01;100.00;99797.44;4976030;28;19928;-85
2022/03/04 13:46:08;;;;;;;;;;;;;;;3.05;100.00;99797.38;4973353;28;19965;-81
2022/03/04 13:48:33;;;;;;;;;;;;;;;3.12;100.00;99794.69;4976065;28;19988;-80
2022/03/04 13:51:09;;;;;;;;;;;;;;;3.21;100.00;99797.22;4975004;28;20365;-86
2022/03/04 13:53:36;;;;;;;;;;;;;;;3.23;100.00;99796.28;4975486;28;19918;-85
2022/03/04 13:56:02;;;;;;;;;;;;;;;3.30;100.00;99789.22;4974043;28;19918;-82
2022/03/04 13:58:31;;;;;;;;;;;;;;;3.34;100.00;99790.06;4975893;28;19922;-83
2022/03/04 14:01:04;;;;;;;;;;;;;;;3.35;100.00;99797.91;4972387;28;19924;-88
2022/03/04 14:03:31;;;;;;;;;;;;;;;3.41;100.00;99787.31;4974075;28;19918;-88
2022/03/04 14:08:31;;;;;;;;;;;;;;;3.53;100.00;99781.06;5189822;23;20487;-90
2022/03/04 14:10:59;;;;;;;;;;;;;;;3.52;100.00;99781.94;4993380;28;19925;-86
2022/03/04 14:13:24;;;;;;;;;;;;;;;3.58;100.00;99778.38;5010058;28;20277;-88
2022/03/04 14:15:50;;;;;;;;;;;;;;;3.62;100.00;99774.78;4975940;28;19921;-88
2022/03/04 14:18:17;;;;;;;;;;;;;;;3.63;100.00;99779.16;4993460;28;20350;-87
2022/03/04 14:20:43;;;;;;;;;;;;;;;3.68;100.00;99784.34;4994863;28;19929;-86
2022/03/04 14:23:10;;;;;;;;;;;;;;;3.71;100.00;99779.91;4993598;28;20364;-86
2022/03/04 14:25:36;;;;;;;;;;;;;;;3.72;100.00;99773.78;4993476;28;19920;-85
2022/03/04 14:28:02;;;;;;;;;;;;;;;3.11;100.00;99780.72;4994660;28;19968;-87
2022/03/04 14:30:29;;;;;;;;;;;;;;;2.59;100.00;99774.34;4992592;28;19956;-84
2022/03/04 14:32:56;;;;;;;;;;;;;;;2.52;100.00;99778.78;4994498;28;19918;-85
2022/03/04 14:35:22;;;;;;;;;;;;;;;2.24;98.52;99777.31;4994615;28;20404;-83
2022/03/04 14:37:48;;;;;;;;;;;;;;;2.15;96.64;99781.75;4994480;28;19972;-84
2022/03/04 14:40:18;;;;;;;;;;;;;;;1.96;94.77;99778.41;4994520;28;19925;-85
2022/03/04 14:42:44;;;;;;;;;;;;;;;1.99;93.54;99767.94;4992760;28;19918;-86
2022/03/04 14:45:10;;;;;;;;;;;;;;;2.04;92.86;99774.84;4992686;28;20314;-86
2022/03/04 14:47:36;;;;;;;;;;;;;;;1.75;90.90;99779.41;4992897;28;19918;-82
2022/03/04 14:50:02;;;;;;;;;;;;;;;1.71;90.13;99771.63;4993140;28;19928;-87
2022/03/04 14:52:27;;;;;;;;;;;;;;;1.62;89.38;99776.03;4994394;28;20013;-86
2022/03/04 14:54:52;;;;;;;;;;;;;;;1.66;88.25;99781.22;4992212;28;19922;-84
2022/03/04 14:57:17;;;;;;;;;;;;;;;1.51;87.21;99774.38;4993085;28;19984;-85
2022/03/04 14:59:43;;;;;;;;;;;;;;;1.51;86.71;99774.38;4993053;28;19960;-86
2022/03/04 15:02:08;;;;;;;;;;;;;;;1.45;85.69;99777.88;4993984;28;19918;-84
2022/03/04 15:04:37;;;;;;;;;;;;;;;1.44;85.18;99769.19;4992804;28;20419;-84
2022/03/04 15:07:08;;;;;;;;;;;;;;;1.52;84.42;99779.59;4993552;28;20340;-87
2022/03/04 15:09:34;;;;;;;;;;;;;;;1.37;83.59;99777.06;4991999;28;19922;-88
2022/03/04 15:11:59;;;;;;;;;;;;;;;1.37;83.68;99777.06;4992581;28;19975;-82
2022/03/04 15:14:24;;;;;;;;;;;;;;;1.34;82.81;99774.47;4991333;28;19917;-87
2022/03/04 15:16:50;;;;;;;;;;;;;;;1.40;82.64;99772.69;4994009;28;19918;-86
2022/03/04 15:19:15;;;;;;;;;;;;;;;1.13;82.25;99776.31;4993788;28;20296;-82
2022/03/04 15:21:44;;;;;;;;;;;;;;;1.24;82.33;99771.03;4992446;28;19918;-87
2022/03/04 15:24:09;;;;;;;;;;;;;;;1.26;81.84;99772.78;4993626;28;20387;-87
2022/03/04 15:26:35;;;;;;;;;;;;;;;1.27;81.46;99777.09;4992371;28;19926;-85
2022/03/04 15:29:00;;;;;;;;;;;;;;;1.92;79.76;99770.63;4990908;28;19926;-84
2022/03/04 15:31:25;;;;;;;;;;;;;;;1.59;80.15;99770.81;4993485;28;19918;-83
2022/03/04 15:33:51;;;;;;;;;;;;;;;1.40;80.92;99779.66;4993394;28;19922;-83
2022/03/04 15:36:17;;;;;;;;;;;;;;;1.32;81.00;99776.22;4992288;28;19925;-82
2022/03/04 15:38:42;;;;;;;;;;;;;;;1.18;81.33;99773.66;4992105;28;19925;-82
2022/03/04 15:41:07;;;;;;;;;;;;;;;1.26;81.12;99779.72;4991616;28;19984;-85
2022/03/04 15:43:32;;;;;;;;;;;;;;;1.12;80.57;99777.19;4992793;28;19925;-85
2022/03/04 15:45:58;;;;;;;;;;;;;;;1.14;80.53;99774.56;4989395;28;19929;-83
2022/03/04 15:48:23;;;;;;;;;;;;;;;1.16;80.43;99784.13;4990861;28;19968;-82
2022/03/04 15:50:48;;;;;;;;;;;;;;;1.05;80.17;99775.47;4990929;28;20391;-87
2022/03/04 15:53:14;;;;;;;;;;;;;;;1.04;80.56;99774.63;4993218;28;19918;-83
2022/03/04 15:55:40;;;;;;;;;;;;;;;1.05;80.79;99780.69;4990782;28;20020;-84
2022/03/04 15:58:05;;;;;;;;;;;;;;;1.07;80.76;99781.56;4992324;28;20517;-83
2022/03/04 16:00:32;;;;;;;;;;;;;;;1.03;80.30;99774.63;4990718;28;20370;-81
2022/03/04 16:02:57;;;;;;;;;;;;;;;0.89;80.54;99780.78;4992706;28;19922;-82
2022/03/04 16:05:23;;;;;;;;;;;;;;;0.97;80.28;99783.31;4993020;28;19953;-82
2022/03/04 16:07:48;;;;;;;;;;;;;;;1.01;80.22;99777.22;4991255;28;19921;-82
2022/03/04 16:10:13;;;;;;;;;;;;;;;1.00;80.15;99792.91;4992879;28;19921;-82
2022/03/04 16:12:38;;;;;;;;;;;;;;;0.94;80.11;99790.31;4992796;28;19914;-83
2022/03/04 16:15:04;;;;;;;;;;;;;;;0.95;79.72;99779.88;4990103;28;19969;-82
2022/03/04 16:17:30;;;;;;;;;;;;;;;0.91;79.84;99778.16;4991280;28;19918;-84
2022/03/04 16:19:55;;;;;;;;;;;;;;;1.00;79.45;99777.25;4991679;28;20285;-82
2022/03/04 16:22:21;;;;;;;;;;;;;;;0.94;79.45;99772.91;4992730;28;19922;-82
2022/03/04 16:24:46;;;;;;;;;;;;;;;0.93;79.47;99765.97;4987945;28;19924;-86
2022/03/04 16:27:11;;;;;;;;;;;;;;;0.90;79.40;99769.44;4991289;28;19921;-82
2022/03/04 16:29:36;;;;;;;;;;;;;;;0.81;79.26;99774.69;4990153;28;20265;-86
2022/03/04 16:32:02;;;;;;;;;;;;;;;0.76;79.45;99778.19;4991021;28;20360;-84
2022/03/04 16:34:28;;;;;;;;;;;;;;;0.75;79.47;99776.44;4990610;28;20025;-82
2022/03/04 16:36:53;;;;;;;;;;;;;;;0.72;79.36;99772.13;4991078;28;20296;-86
2022/03/04 16:39:20;;;;;;;;;;;;;;;0.78;79.58;99773.84;4992517;28;19917;-85
2022/03/04 16:41:47;;;;;;;;;;;;;;;0.69;79.47;99774.75;4990876;28;19918;-85
2022/03/04 16:44:13;;;;;;;;;;;;;;;0.71;79.54;99770.38;4989674;28;19977;-86
2022/03/04 16:46:39;;;;;;;;;;;;;;;0.68;79.06;99773.00;4991911;28;19922;-82
2022/03/04 16:49:04;;;;;;;;;;;;;;;0.67;79.25;99779.06;4990942;28;20000;-83
2022/03/04 16:51:30;;;;;;;;;;;;;;;0.72;79.41;99777.34;4992323;28;19997;-83
2022/03/04 16:53:55;;;;;;;;;;;;;;;0.71;79.34;99786.03;4987430;28;19925;-82
2022/03/04 16:56:20;;;;;;;;;;;;;;;0.70;79.11;99782.56;4988892;28;19929;-82
2022/03/04 16:58:46;;;;;;;;;;;;;;;0.72;79.04;99791.25;4987853;28;20289;-79
2022/03/04 17:01:11;;;;;;;;;;;;;;;0.63;79.18;99790.41;4989650;28;19934;-82
2022/03/04 17:03:37;;;;;;;;;;;;;;;0.70;79.07;99781.69;4989666;28;20474;-80
2022/03/04 17:06:03;;;;;;;;;;;;;;;0.69;78.72;99787.78;4988532;28;19926;-82
2022/03/04 17:08:28;;;;;;;;;;;;;;;0.57;78.77;99793.88;4989212;28;20017;-83
2022/03/04 17:10:53;;;;;;;;;;;;;;;0.66;78.99;99795.63;4985125;28;19928;-83
2022/03/04 17:13:19;;;;;;;;;;;;;;;0.65;79.10;99797.34;4987032;28;20285;-81
2022/03/04 17:15:46;;;;;;;;;;;;;;;0.62;79.21;99796.47;4989906;28;19929;-84
2022/03/04 17:18:11;;;;;;;;;;;;;;;0.51;78.65;99804.31;4989249;28;19922;-81
2022/03/04 17:20:38;;;;;;;;;;;;;;;0.51;78.62;99801.72;4989630;28;19948;-83
2022/03/04 17:23:03;;;;;;;;;;;;;;;0.45;78.65;99799.16;4991889;28;19948;-85
2022/03/04 17:25:29;;;;;;;;;;;;;;;0.49;78.63;99800.84;4991009;28;20587;-84
2022/03/04 17:27:59;;;;;;;;;;;;;;;0.64;78.57;99799.94;4989790;28;19945;-84
2022/03/04 17:30:24;;;;;;;;;;;;;;;0.59;78.28;99812.13;4989000;28;19976;-82
2022/03/04 17:32:49;;;;;;;;;;;;;;;0.54;78.15;99814.75;4993207;28;19957;-84
2022/03/04 17:35:14;;;;;;;;;;;;;;;0.56;78.16;99812.13;4991426;28;19975;-80
2022/03/04 17:37:40;;;;;;;;;;;;;;;0.45;78.09;99814.78;4992409;28;19930;-82
2022/03/04 17:40:05;;;;;;;;;;;;;;;0.58;78.07;99816.50;4994859;28;20484;-82
2022/03/04 17:42:31;;;;;;;;;;;;;;;0.47;78.21;99826.06;4990890;28;19929;-82
2022/03/04 17:44:57;;;;;;;;;;;;;;;0.49;78.03;99822.56;4991805;28;19941;-83
2022/03/04 17:47:22;;;;;;;;;;;;;;;0.52;77.53;99819.97;4993429;28;19930;-82
2022/03/04 17:49:48;;;;;;;;;;;;;;;0.53;77.73;99819.09;4992834;28;20262;-82
2022/03/04 17:52:14;;;;;;;;;;;;;;;0.46;77.78;99816.50;4991897;28;19973;-81
2022/03/04 17:54:40;;;;;;;;;;;;;;;0.47;77.64;99824.31;4992614;28;20354;-82
2022/03/04 17:57:07;;;;;;;;;;;;;;;0.45;77.78;99818.25;4992952;28;19926;-83
2022/03/04 17:59:36;;;;;;;;;;;;;;;0.60;77.61;99819.09;4989609;28;19929;-82
2022/03/04 18:02:01;;;;;;;;;;;;;;;0.51;77.33;99826.06;4993220;28;19922;-82
2022/03/04 18:04:27;;;;;;;;;;;;;;;0.38;77.30;99823.47;4994095;28;19928;-82
2022/03/04 18:06:53;;;;;;;;;;;;;;;0.45;77.51;99828.69;4992871;28;19922;-82
2022/03/04 18:09:18;;;;;;;;;;;;;;;0.54;77.54;99825.19;4992950;28;19922;-82
2022/03/04 18:11:44;;;;;;;;;;;;;;;0.60;77.13;99834.75;4990765;28;19925;-81
2022/03/04 18:14:09;;;;;;;;;;;;;;;0.54;77.12;99833.88;4990143;28;19925;-81
2022/03/04 18:16:34;;;;;;;;;;;;;;;0.49;77.12;99827.78;4993548;28;20488;-83
2022/03/04 18:18:59;;;;;;;;;;;;;;;0.54;76.80;99836.50;4992307;28;19918;-82
2022/03/04 18:21:25;;;;;;;;;;;;;;;0.47;76.83;99839.97;4994110;28;19922;-81
2022/03/04 18:23:50;;;;;;;;;;;;;;;0.50;77.09;99845.19;4991177;28;19932;-83
2022/03/04 18:26:15;;;;;;;;;;;;;;;0.45;76.82;99846.94;4989867;28;19926;-82
2022/03/04 18:28:41;;;;;;;;;;;;;;;0.49;77.31;99846.03;4992653;28;19922;-81
2022/03/04 18:31:07;;;;;;;;;;;;;;;0.51;76.48;99846.03;4988967;28;20355;-81
2022/03/04 18:33:34;;;;;;;;;;;;;;;0.42;76.53;99846.94;4991337;28;20008;-81
2022/03/04 18:35:59;;;;;;;;;;;;;;;0.51;76.58;99849.53;4988447;28;19961;-83
2022/03/04 18:41:08;;;;;;;;;;;;;;;0.56;76.49;99856.47;4992269;28;20044;-83
2022/03/04 18:43:34;;;;;;;;;;;;;;;0.43;76.30;99864.31;4991282;28;20376;-83
2022/03/04 18:45:59;;;;;;;;;;;;;;;0.56;76.38;99856.47;4990806;28;19921;-82
2022/03/04 18:48:24;;;;;;;;;;;;;;;0.42;76.15;99862.56;4991479;28;19929;-82
2022/03/04 18:50:50;;;;;;;;;;;;;;;0.49;76.21;99858.22;4992492;28;19918;-82
2022/03/04 18:53:15;;;;;;;;;;;;;;;0.50;76.13;99865.19;4988421;28;19922;-83
2022/03/04 18:55:40;;;;;;;;;;;;;;;0.48;76.07;99873.00;4986929;28;19964;-82
2022/03/04 18:58:06;;;;;;;;;;;;;;;0.48;75.78;99869.50;4992896;28;19925;-81
2022/03/04 19:00:31;;;;;;;;;;;;;;;0.52;75.88;99869.50;4984941;28;20013;-82
2022/03/04 19:02:57;;;;;;;;;;;;;;;0.44;76.01;99873.00;4991947;28;20002;-83
2022/03/04 19:05:23;;;;;;;;;;;;;;;0.47;75.66;99873.00;4991809;28;19929;-82
2022/03/04 19:07:48;;;;;;;;;;;;;;;0.51;75.75;99877.31;4991059;28;19922;-82
2022/03/04 19:10:15;;;;;;;;;;;;;;;0.52;75.57;99874.72;4991570;28;19926;-81
2022/03/04 19:12:41;;;;;;;;;;;;;;;0.50;75.41;99878.22;4991831;28;19965;-81
2022/03/04 19:15:07;;;;;;;;;;;;;;;0.48;75.54;99885.16;4992198;28;20364;-80
2022/03/04 19:17:34;;;;;;;;;;;;;;;0.49;75.36;99887.75;4991735;28;19922;-82
2022/03/04 19:19:59;;;;;;;;;;;;;;;0.52;75.38;99887.75;4989435;28;19922;-82
2022/03/04 19:22:24;;;;;;;;;;;;;;;0.50;75.27;99886.03;4991826;28;19933;-81
2022/03/04 19:24:50;;;;;;;;;;;;;;;0.47;75.31;99893.84;4992029;28;20329;-80
2022/03/04 19:27:15;;;;;;;;;;;;;;;0.44;75.34;99891.25;4989973;28;19922;-82
2022/03/04 19:29:40;;;;;;;;;;;;;;;0.58;75.17;99888.66;4989911;28;20198;-81
2022/03/04 19:32:06;;;;;;;;;;;;;;;0.52;75.33;99899.94;4992585;28;20052;-80
2022/03/04 19:34:31;;;;;;;;;;;;;;;0.51;75.02;99893.88;4990608;28;19930;-82
2022/03/04 19:36:56;;;;;;;;;;;;;;;0.50;75.01;99907.75;4991939;28;20301;-84
2022/03/04 19:39:23;;;;;;;;;;;;;;;0.57;75.05;99905.16;4990532;28;19926;-82
2022/03/04 19:41:53;;;;;;;;;;;;;;;0.56;74.96;99900.81;4991190;28;19928;-83
2022/03/04 19:44:19;;;;;;;;;;;;;;;0.47;74.85;99899.94;4991471;28;19932;-82
2022/03/04 19:46:44;;;;;;;;;;;;;;;0.52;74.79;99903.41;4991789;28;20289;-83
2022/03/04 19:49:09;;;;;;;;;;;;;;;0.53;74.97;99902.53;4992260;28;19929;-82
2022/03/04 19:51:34;;;;;;;;;;;;;;;0.51;74.69;99901.69;4992675;28;19925;-81
2022/03/04 19:54:00;;;;;;;;;;;;;;;0.50;74.70;99907.75;4992160;28;19929;-81
2022/03/04 19:56:27;;;;;;;;;;;;;;;0.54;74.62;99904.28;4990494;28;19973;-82
2022/03/04 19:58:52;;;;;;;;;;;;;;;0.54;74.45;99906.91;4989056;28;19926;-80
2022/03/04 20:01:17;;;;;;;;;;;;;;;0.51;74.32;99914.72;4991276;28;20380;-81
2022/03/04 20:03:43;;;;;;;;;;;;;;;0.45;74.41;99908.66;4991976;28;19937;-82
2022/03/04 20:06:08;;;;;;;;;;;;;;;0.53;74.72;99914.72;4991288;28;20385;-83
2022/03/04 20:08:33;;;;;;;;;;;;;;;0.54;74.42;99909.50;4990132;28;19925;-80
2022/03/04 20:10:58;;;;;;;;;;;;;;;0.55;74.06;99918.19;4989636;28;19922;-83
2022/03/04 20:13:24;;;;;;;;;;;;;;;0.52;74.17;99916.44;4990229;28;19933;-82
2022/03/04 20:15:50;;;;;;;;;;;;;;;0.54;74.14;99917.34;4989930;28;20353;-84
2022/03/04 20:18:19;;;;;;;;;;;;;;;0.58;74.16;99907.75;4989333;28;19954;-81
2022/03/04 20:20:45;;;;;;;;;;;;;;;0.52;74.12;99902.53;4991478;28;19922;-81
2022/03/04 20:23:10;;;;;;;;;;;;;;;0.55;73.84;99912.97;4988864;28;19933;-78
2022/03/04 20:25:36;;;;;;;;;;;;;;;0.57;73.82;99913.84;4990326;28;19964;-82
2022/03/04 20:28:01;;;;;;;;;;;;;;;0.60;73.92;99916.44;4990985;28;19929;-81
2022/03/04 20:30:26;;;;;;;;;;;;;;;0.60;73.71;99910.38;4989328;28;19964;-83
2022/03/04 20:32:52;;;;;;;;;;;;;;;0.58;73.68;99910.38;4991036;28;19926;-82
2022/03/04 20:35:17;;;;;;;;;;;;;;;0.62;73.54;99913.84;4989545;28;19930;-81
2022/03/04 20:37:42;;;;;;;;;;;;;;;0.64;73.25;99912.09;4974033;28;19922;-83
2022/03/04 20:40:08;;;;;;;;;;;;;;;0.65;73.21;99914.69;4990240;28;19965;-82